sensor_id;sensor_type;location;lat;lon;timestamp;P1;durP1;ratioP1;P2;durP2;ratioP2
19585;SDS011;9939;49.246;9.106;2024-03-02T00:00:27;31.03;;;19.57;;
19585;SDS011;9939;49.246;9.106;2024-03-02T00:02:54;28.53;;;18.70;;
19585;SDS011;9939;49.246;9.106;2024-03-02T00:05:22;34.20;;;20.40;;
19585;SDS011;9939;49.246;9.106;2024-03-02T00:07:53;32.43;;;19.40;;
19585;SDS011;9939;49.246;9.106;2024-03-02T00:10:27;36.33;;;20.00;;
19585;SDS011;9939;49.246;9.106;2024-03-02T00:13:08;34.37;;;20.33;;
19585;SDS011;9939;49.246;9.106;2024-03-02T00:18:14;35.20;;;20.87;;
19585;SDS011;9939;49.246;9.106;2024-03-02T00:20:44;33.67;;;20.33;;
19585;SDS011;9939;49.246;9.106;2024-03-02T00:23:14;37.70;;;20.97;;
19585;SDS011;9939;49.246;9.106;2024-03-02T00:28:17;38.70;;;22.40;;
19585;SDS011;9939;49.246;9.106;2024-03-02T00:30:55;41.77;;;23.03;;
19585;SDS011;9939;49.246;9.106;2024-03-02T00:33:25;41.73;;;24.00;;
19585;SDS011;9939;49.246;9.106;2024-03-02T00:35:54;37.77;;;22.97;;
19585;SDS011;9939;49.246;9.106;2024-03-02T00:38:22;38.43;;;22.93;;
19585;SDS011;9939;49.246;9.106;2024-03-02T00:40:49;39.00;;;22.37;;
19585;SDS011;9939;49.246;9.106;2024-03-02T00:46:06;46.10;;;24.37;;
19585;SDS011;9939;49.246;9.106;2024-03-02T00:48:33;42.63;;;24.20;;
19585;SDS011;9939;49.246;9.106;2024-03-02T00:51:03;38.10;;;22.03;;
19585;SDS011;9939;49.246;9.106;2024-03-02T00:53:31;44.70;;;23.77;;
19585;SDS011;9939;49.246;9.106;2024-03-02T00:56:01;39.10;;;22.30;;
19585;SDS011;9939;49.246;9.106;2024-03-02T00:58:28;34.23;;;21.03;;
19585;SDS011;9939;49.246;9.106;2024-03-02T01:00:55;39.93;;;21.87;;
19585;SDS011;9939;49.246;9.106;2024-03-02T01:03:22;39.03;;;22.10;;
19585;SDS011;9939;49.246;9.106;2024-03-02T01:05:49;36.03;;;21.73;;
19585;SDS011;9939;49.246;9.106;2024-03-02T01:08:16;35.40;;;21.03;;
19585;SDS011;9939;49.246;9.106;2024-03-02T01:10:43;32.87;;;19.57;;
19585;SDS011;9939;49.246;9.106;2024-03-02T01:13:10;35.70;;;21.20;;
19585;SDS011;9939;49.246;9.106;2024-03-02T01:15:37;36.83;;;21.87;;
19585;SDS011;9939;49.246;9.106;2024-03-02T01:18:04;37.67;;;20.93;;
19585;SDS011;9939;49.246;9.106;2024-03-02T01:20:31;35.03;;;21.10;;
19585;SDS011;9939;49.246;9.106;2024-03-02T01:22:57;36.37;;;22.03;;
19585;SDS011;9939;49.246;9.106;2024-03-02T01:25:24;33.87;;;20.50;;
19585;SDS011;9939;49.246;9.106;2024-03-02T01:27:51;43.27;;;22.20;;
19585;SDS011;9939;49.246;9.106;2024-03-02T01:30:18;35.37;;;20.80;;
19585;SDS011;9939;49.246;9.106;2024-03-02T01:32:45;36.37;;;20.60;;
19585;SDS011;9939;49.246;9.106;2024-03-02T01:35:12;32.30;;;19.40;;
19585;SDS011;9939;49.246;9.106;2024-03-02T01:37:39;32.27;;;19.57;;
19585;SDS011;9939;49.246;9.106;2024-03-02T01:40:06;32.30;;;19.30;;
19585;SDS011;9939;49.246;9.106;2024-03-02T01:42:38;32.93;;;19.80;;
19585;SDS011;9939;49.246;9.106;2024-03-02T01:45:06;32.07;;;19.40;;
19585;SDS011;9939;49.246;9.106;2024-03-02T01:47:34;33.10;;;18.97;;
19585;SDS011;9939;49.246;9.106;2024-03-02T01:50:02;36.53;;;20.57;;
19585;SDS011;9939;49.246;9.106;2024-03-02T01:52:29;30.63;;;18.67;;
19585;SDS011;9939;49.246;9.106;2024-03-02T01:54:55;34.93;;;19.37;;
19585;SDS011;9939;49.246;9.106;2024-03-02T01:57:23;33.83;;;20.40;;
19585;SDS011;9939;49.246;9.106;2024-03-02T01:59:50;37.40;;;20.77;;
19585;SDS011;9939;49.246;9.106;2024-03-02T02:02:17;31.90;;;19.13;;
19585;SDS011;9939;49.246;9.106;2024-03-02T02:04:44;34.90;;;19.77;;
19585;SDS011;9939;49.246;9.106;2024-03-02T02:07:11;32.13;;;19.00;;
19585;SDS011;9939;49.246;9.106;2024-03-02T02:09:41;30.40;;;19.40;;
19585;SDS011;9939;49.246;9.106;2024-03-02T02:12:09;32.33;;;18.73;;
19585;SDS011;9939;49.246;9.106;2024-03-02T02:14:36;41.10;;;20.17;;
19585;SDS011;9939;49.246;9.106;2024-03-02T02:17:03;33.13;;;19.13;;
19585;SDS011;9939;49.246;9.106;2024-03-02T02:19:30;36.57;;;18.77;;
19585;SDS011;9939;49.246;9.106;2024-03-02T02:21:57;35.10;;;19.27;;
19585;SDS011;9939;49.246;9.106;2024-03-02T02:24:24;36.60;;;20.13;;
19585;SDS011;9939;49.246;9.106;2024-03-02T02:26:51;35.40;;;19.83;;
19585;SDS011;9939;49.246;9.106;2024-03-02T02:29:18;31.10;;;17.93;;
19585;SDS011;9939;49.246;9.106;2024-03-02T02:31:45;32.77;;;18.87;;
19585;SDS011;9939;49.246;9.106;2024-03-02T02:34:11;34.03;;;20.10;;
19585;SDS011;9939;49.246;9.106;2024-03-02T02:36:40;31.37;;;18.67;;
19585;SDS011;9939;49.246;9.106;2024-03-02T02:39:07;35.17;;;18.50;;
19585;SDS011;9939;49.246;9.106;2024-03-02T02:41:37;35.40;;;19.70;;
19585;SDS011;9939;49.246;9.106;2024-03-02T02:44:04;36.20;;;20.77;;
19585;SDS011;9939;49.246;9.106;2024-03-02T02:46:31;37.47;;;19.50;;
19585;SDS011;9939;49.246;9.106;2024-03-02T02:48:58;35.60;;;19.13;;
19585;SDS011;9939;49.246;9.106;2024-03-02T02:51:25;36.10;;;20.30;;
19585;SDS011;9939;49.246;9.106;2024-03-02T02:53:52;35.63;;;19.93;;
19585;SDS011;9939;49.246;9.106;2024-03-02T02:56:19;33.63;;;20.10;;
19585;SDS011;9939;49.246;9.106;2024-03-02T02:58:46;33.47;;;19.30;;
19585;SDS011;9939;49.246;9.106;2024-03-02T03:01:13;38.23;;;20.33;;
19585;SDS011;9939;49.246;9.106;2024-03-02T03:03:40;38.03;;;19.07;;
19585;SDS011;9939;49.246;9.106;2024-03-02T03:06:07;34.23;;;18.30;;
19585;SDS011;9939;49.246;9.106;2024-03-02T03:08:34;32.53;;;18.27;;
19585;SDS011;9939;49.246;9.106;2024-03-02T03:11:00;35.27;;;18.00;;
19585;SDS011;9939;49.246;9.106;2024-03-02T03:13:27;35.07;;;19.07;;
19585;SDS011;9939;49.246;9.106;2024-03-02T03:15:54;34.90;;;19.60;;
19585;SDS011;9939;49.246;9.106;2024-03-02T03:18:21;32.17;;;18.80;;
19585;SDS011;9939;49.246;9.106;2024-03-02T03:20:48;35.90;;;20.13;;
19585;SDS011;9939;49.246;9.106;2024-03-02T03:23:16;33.07;;;19.10;;
19585;SDS011;9939;49.246;9.106;2024-03-02T03:25:43;37.90;;;20.37;;
19585;SDS011;9939;49.246;9.106;2024-03-02T03:28:10;31.97;;;19.33;;
19585;SDS011;9939;49.246;9.106;2024-03-02T03:30:37;35.67;;;19.87;;
19585;SDS011;9939;49.246;9.106;2024-03-02T03:33:05;33.33;;;19.57;;
19585;SDS011;9939;49.246;9.106;2024-03-02T03:35:34;37.37;;;18.97;;
19585;SDS011;9939;49.246;9.106;2024-03-02T03:38:02;32.53;;;17.60;;
19585;SDS011;9939;49.246;9.106;2024-03-02T03:40:29;30.67;;;18.00;;
19585;SDS011;9939;49.246;9.106;2024-03-02T03:42:56;30.97;;;18.13;;
19585;SDS011;9939;49.246;9.106;2024-03-02T03:45:23;34.13;;;18.33;;
19585;SDS011;9939;49.246;9.106;2024-03-02T03:47:53;33.70;;;19.17;;
19585;SDS011;9939;49.246;9.106;2024-03-02T03:50:21;31.63;;;18.53;;
19585;SDS011;9939;49.246;9.106;2024-03-02T03:52:48;32.43;;;18.07;;
19585;SDS011;9939;49.246;9.106;2024-03-02T03:55:15;29.83;;;17.57;;
19585;SDS011;9939;49.246;9.106;2024-03-02T03:57:41;30.20;;;17.60;;
19585;SDS011;9939;49.246;9.106;2024-03-02T04:00:08;27.30;;;17.03;;
19585;SDS011;9939;49.246;9.106;2024-03-02T04:02:39;32.80;;;18.57;;
19585;SDS011;9939;49.246;9.106;2024-03-02T04:05:06;33.33;;;17.33;;
19585;SDS011;9939;49.246;9.106;2024-03-02T04:07:37;29.67;;;17.87;;
19585;SDS011;9939;49.246;9.106;2024-03-02T04:10:07;30.30;;;18.50;;
19585;SDS011;9939;49.246;9.106;2024-03-02T04:12:36;30.03;;;17.77;;
19585;SDS011;9939;49.246;9.106;2024-03-02T04:15:04;28.27;;;17.23;;
19585;SDS011;9939;49.246;9.106;2024-03-02T04:17:32;31.93;;;18.03;;
19585;SDS011;9939;49.246;9.106;2024-03-02T04:20:00;30.90;;;18.33;;
19585;SDS011;9939;49.246;9.106;2024-03-02T04:22:27;33.87;;;17.97;;
19585;SDS011;9939;49.246;9.106;2024-03-02T04:24:54;31.70;;;18.17;;
19585;SDS011;9939;49.246;9.106;2024-03-02T04:27:21;57.17;;;20.33;;
19585;SDS011;9939;49.246;9.106;2024-03-02T04:29:48;38.50;;;18.53;;
19585;SDS011;9939;49.246;9.106;2024-03-02T04:32:16;31.63;;;17.83;;
19585;SDS011;9939;49.246;9.106;2024-03-02T04:34:42;29.87;;;18.10;;
19585;SDS011;9939;49.246;9.106;2024-03-02T04:37:10;29.93;;;17.57;;
19585;SDS011;9939;49.246;9.106;2024-03-02T04:39:39;27.83;;;16.83;;
19585;SDS011;9939;49.246;9.106;2024-03-02T04:42:06;28.17;;;17.20;;
19585;SDS011;9939;49.246;9.106;2024-03-02T04:44:32;24.83;;;16.07;;
19585;SDS011;9939;49.246;9.106;2024-03-02T04:46:59;28.53;;;17.10;;
19585;SDS011;9939;49.246;9.106;2024-03-02T04:49:26;27.23;;;15.63;;
19585;SDS011;9939;49.246;9.106;2024-03-02T04:51:53;26.33;;;15.63;;
19585;SDS011;9939;49.246;9.106;2024-03-02T04:54:21;25.87;;;15.63;;
19585;SDS011;9939;49.246;9.106;2024-03-02T04:56:48;23.23;;;14.97;;
19585;SDS011;9939;49.246;9.106;2024-03-02T04:59:18;23.07;;;14.63;;
19585;SDS011;9939;49.246;9.106;2024-03-02T05:01:45;26.47;;;16.30;;
19585;SDS011;9939;49.246;9.106;2024-03-02T05:04:13;25.43;;;15.07;;
19585;SDS011;9939;49.246;9.106;2024-03-02T05:06:40;30.17;;;16.77;;
19585;SDS011;9939;49.246;9.106;2024-03-02T05:09:10;34.10;;;19.10;;
19585;SDS011;9939;49.246;9.106;2024-03-02T05:11:37;29.97;;;17.93;;
19585;SDS011;9939;49.246;9.106;2024-03-02T05:14:04;29.43;;;17.27;;
19585;SDS011;9939;49.246;9.106;2024-03-02T05:16:35;26.83;;;15.87;;
19585;SDS011;9939;49.246;9.106;2024-03-02T05:19:04;28.67;;;16.90;;
19585;SDS011;9939;49.246;9.106;2024-03-02T05:21:33;28.90;;;16.50;;
19585;SDS011;9939;49.246;9.106;2024-03-02T05:24:00;27.47;;;15.37;;
19585;SDS011;9939;49.246;9.106;2024-03-02T05:26:27;32.07;;;17.50;;
19585;SDS011;9939;49.246;9.106;2024-03-02T05:28:54;30.33;;;17.57;;
19585;SDS011;9939;49.246;9.106;2024-03-02T05:31:21;30.03;;;16.83;;
19585;SDS011;9939;49.246;9.106;2024-03-02T05:33:47;33.33;;;18.13;;
19585;SDS011;9939;49.246;9.106;2024-03-02T05:36:17;33.97;;;19.43;;
19585;SDS011;9939;49.246;9.106;2024-03-02T05:38:44;34.43;;;18.87;;
19585;SDS011;9939;49.246;9.106;2024-03-02T05:41:10;30.67;;;17.83;;
19585;SDS011;9939;49.246;9.106;2024-03-02T05:43:38;32.83;;;18.73;;
19585;SDS011;9939;49.246;9.106;2024-03-02T05:46:05;30.63;;;18.27;;
19585;SDS011;9939;49.246;9.106;2024-03-02T05:48:32;27.50;;;16.63;;
19585;SDS011;9939;49.246;9.106;2024-03-02T05:50:59;31.00;;;16.37;;
19585;SDS011;9939;49.246;9.106;2024-03-02T05:53:26;30.60;;;16.33;;
19585;SDS011;9939;49.246;9.106;2024-03-02T05:55:53;30.57;;;16.40;;
19585;SDS011;9939;49.246;9.106;2024-03-02T05:58:22;34.13;;;17.70;;
19585;SDS011;9939;49.246;9.106;2024-03-02T06:00:49;27.87;;;17.10;;
19585;SDS011;9939;49.246;9.106;2024-03-02T06:03:16;29.23;;;16.73;;
19585;SDS011;9939;49.246;9.106;2024-03-02T06:05:42;32.00;;;16.50;;
19585;SDS011;9939;49.246;9.106;2024-03-02T06:08:09;31.63;;;17.50;;
19585;SDS011;9939;49.246;9.106;2024-03-02T06:10:36;31.77;;;16.90;;
19585;SDS011;9939;49.246;9.106;2024-03-02T06:13:03;32.73;;;17.77;;
19585;SDS011;9939;49.246;9.106;2024-03-02T06:15:30;31.70;;;17.00;;
19585;SDS011;9939;49.246;9.106;2024-03-02T06:17:57;28.77;;;15.60;;
19585;SDS011;9939;49.246;9.106;2024-03-02T06:20:24;31.57;;;17.43;;
19585;SDS011;9939;49.246;9.106;2024-03-02T06:22:53;32.60;;;17.27;;
19585;SDS011;9939;49.246;9.106;2024-03-02T06:25:19;38.40;;;18.80;;
19585;SDS011;9939;49.246;9.106;2024-03-02T06:27:46;31.83;;;16.73;;
19585;SDS011;9939;49.246;9.106;2024-03-02T06:30:13;34.77;;;18.43;;
19585;SDS011;9939;49.246;9.106;2024-03-02T06:32:40;34.97;;;18.43;;
19585;SDS011;9939;49.246;9.106;2024-03-02T06:35:07;32.60;;;18.03;;
19585;SDS011;9939;49.246;9.106;2024-03-02T06:37:36;37.20;;;20.57;;
19585;SDS011;9939;49.246;9.106;2024-03-02T06:40:06;31.10;;;16.63;;
19585;SDS011;9939;49.246;9.106;2024-03-02T06:42:36;37.93;;;18.40;;
19585;SDS011;9939;49.246;9.106;2024-03-02T06:45:03;32.60;;;17.47;;
19585;SDS011;9939;49.246;9.106;2024-03-02T06:47:30;28.37;;;15.53;;
19585;SDS011;9939;49.246;9.106;2024-03-02T06:49:57;28.37;;;15.73;;
19585;SDS011;9939;49.246;9.106;2024-03-02T06:52:25;28.73;;;16.70;;
19585;SDS011;9939;49.246;9.106;2024-03-02T06:54:51;29.73;;;15.77;;
19585;SDS011;9939;49.246;9.106;2024-03-02T06:57:19;26.43;;;15.67;;
19585;SDS011;9939;49.246;9.106;2024-03-02T06:59:47;30.00;;;16.07;;
19585;SDS011;9939;49.246;9.106;2024-03-02T07:02:16;29.50;;;16.17;;
19585;SDS011;9939;49.246;9.106;2024-03-02T07:04:43;26.57;;;15.53;;
19585;SDS011;9939;49.246;9.106;2024-03-02T07:07:11;27.90;;;15.93;;
19585;SDS011;9939;49.246;9.106;2024-03-02T07:09:38;30.40;;;15.40;;
19585;SDS011;9939;49.246;9.106;2024-03-02T07:12:06;25.47;;;15.33;;
19585;SDS011;9939;49.246;9.106;2024-03-02T07:14:33;26.77;;;16.30;;
19585;SDS011;9939;49.246;9.106;2024-03-02T07:17:26;25.97;;;15.10;;
19585;SDS011;9939;49.246;9.106;2024-03-02T07:19:52;23.07;;;15.03;;
19585;SDS011;9939;49.246;9.106;2024-03-02T07:22:20;29.40;;;15.80;;
19585;SDS011;9939;49.246;9.106;2024-03-02T07:24:47;31.20;;;16.03;;
19585;SDS011;9939;49.246;9.106;2024-03-02T07:27:14;28.80;;;16.03;;
19585;SDS011;9939;49.246;9.106;2024-03-02T07:29:42;30.50;;;16.10;;
19585;SDS011;9939;49.246;9.106;2024-03-02T07:32:09;32.10;;;16.03;;
19585;SDS011;9939;49.246;9.106;2024-03-02T07:34:37;35.33;;;16.20;;
19585;SDS011;9939;49.246;9.106;2024-03-02T07:37:04;34.13;;;15.80;;
19585;SDS011;9939;49.246;9.106;2024-03-02T07:39:31;30.50;;;16.33;;
19585;SDS011;9939;49.246;9.106;2024-03-02T07:41:58;29.73;;;15.70;;
19585;SDS011;9939;49.246;9.106;2024-03-02T07:44:26;30.23;;;15.73;;
19585;SDS011;9939;49.246;9.106;2024-03-02T07:46:53;29.83;;;16.13;;
19585;SDS011;9939;49.246;9.106;2024-03-02T07:49:20;25.30;;;13.77;;
19585;SDS011;9939;49.246;9.106;2024-03-02T07:51:47;25.43;;;15.40;;
19585;SDS011;9939;49.246;9.106;2024-03-02T07:54:14;26.53;;;15.63;;
19585;SDS011;9939;49.246;9.106;2024-03-02T07:56:41;25.03;;;14.77;;
19585;SDS011;9939;49.246;9.106;2024-03-02T07:59:08;24.90;;;14.63;;
19585;SDS011;9939;49.246;9.106;2024-03-02T08:01:35;26.00;;;14.80;;
19585;SDS011;9939;49.246;9.106;2024-03-02T08:04:02;25.37;;;14.13;;
19585;SDS011;9939;49.246;9.106;2024-03-02T08:06:31;28.27;;;14.70;;
19585;SDS011;9939;49.246;9.106;2024-03-02T08:09:00;24.40;;;14.13;;
19585;SDS011;9939;49.246;9.106;2024-03-02T08:11:27;25.27;;;14.67;;
19585;SDS011;9939;49.246;9.106;2024-03-02T08:13:55;24.50;;;14.40;;
19585;SDS011;9939;49.246;9.106;2024-03-02T08:16:22;27.27;;;14.83;;
19585;SDS011;9939;49.246;9.106;2024-03-02T08:18:49;26.93;;;15.87;;
19585;SDS011;9939;49.246;9.106;2024-03-02T08:21:17;24.67;;;14.50;;
19585;SDS011;9939;49.246;9.106;2024-03-02T08:23:44;22.40;;;13.87;;
19585;SDS011;9939;49.246;9.106;2024-03-02T08:26:11;21.87;;;13.97;;
19585;SDS011;9939;49.246;9.106;2024-03-02T08:28:38;21.47;;;13.50;;
19585;SDS011;9939;49.246;9.106;2024-03-02T08:31:06;25.73;;;14.93;;
19585;SDS011;9939;49.246;9.106;2024-03-02T08:33:34;27.33;;;15.30;;
19585;SDS011;9939;49.246;9.106;2024-03-02T08:36:04;25.47;;;15.10;;
19585;SDS011;9939;49.246;9.106;2024-03-02T08:38:31;27.70;;;15.07;;
19585;SDS011;9939;49.246;9.106;2024-03-02T08:40:58;23.70;;;14.70;;
19585;SDS011;9939;49.246;9.106;2024-03-02T08:43:25;25.50;;;14.17;;
19585;SDS011;9939;49.246;9.106;2024-03-02T08:45:52;23.00;;;13.40;;
19585;SDS011;9939;49.246;9.106;2024-03-02T08:48:18;23.47;;;13.53;;
19585;SDS011;9939;49.246;9.106;2024-03-02T08:50:47;19.30;;;12.73;;
19585;SDS011;9939;49.246;9.106;2024-03-02T08:53:14;20.80;;;13.27;;
19585;SDS011;9939;49.246;9.106;2024-03-02T08:55:47;18.67;;;12.93;;
19585;SDS011;9939;49.246;9.106;2024-03-02T08:58:15;19.23;;;11.83;;
19585;SDS011;9939;49.246;9.106;2024-03-02T09:00:42;17.47;;;11.93;;
19585;SDS011;9939;49.246;9.106;2024-03-02T09:03:09;19.23;;;12.37;;
19585;SDS011;9939;49.246;9.106;2024-03-02T09:05:36;18.13;;;12.43;;
19585;SDS011;9939;49.246;9.106;2024-03-02T09:08:03;18.33;;;12.33;;
19585;SDS011;9939;49.246;9.106;2024-03-02T09:10:30;17.83;;;11.13;;
19585;SDS011;9939;49.246;9.106;2024-03-02T09:12:58;15.87;;;11.10;;
19585;SDS011;9939;49.246;9.106;2024-03-02T09:15:26;19.47;;;11.77;;
19585;SDS011;9939;49.246;9.106;2024-03-02T09:17:53;17.87;;;11.80;;
19585;SDS011;9939;49.246;9.106;2024-03-02T09:20:19;18.37;;;11.83;;
19585;SDS011;9939;49.246;9.106;2024-03-02T09:22:46;18.47;;;11.83;;
19585;SDS011;9939;49.246;9.106;2024-03-02T09:25:13;16.17;;;10.77;;
19585;SDS011;9939;49.246;9.106;2024-03-02T09:27:42;15.03;;;11.30;;
19585;SDS011;9939;49.246;9.106;2024-03-02T09:30:09;16.53;;;11.17;;
19585;SDS011;9939;49.246;9.106;2024-03-02T09:32:37;20.17;;;12.20;;
19585;SDS011;9939;49.246;9.106;2024-03-02T09:35:04;15.00;;;9.57;;
19585;SDS011;9939;49.246;9.106;2024-03-02T09:37:31;14.53;;;10.17;;
19585;SDS011;9939;49.246;9.106;2024-03-02T09:39:58;15.37;;;9.87;;
19585;SDS011;9939;49.246;9.106;2024-03-02T09:42:25;15.27;;;10.00;;
19585;SDS011;9939;49.246;9.106;2024-03-02T09:44:52;16.57;;;10.90;;
19585;SDS011;9939;49.246;9.106;2024-03-02T09:47:19;15.13;;;10.07;;
19585;SDS011;9939;49.246;9.106;2024-03-02T09:49:47;17.57;;;10.53;;
19585;SDS011;9939;49.246;9.106;2024-03-02T09:52:13;15.33;;;10.47;;
19585;SDS011;9939;49.246;9.106;2024-03-02T09:54:41;15.60;;;9.90;;
19585;SDS011;9939;49.246;9.106;2024-03-02T09:57:08;14.97;;;9.93;;
19585;SDS011;9939;49.246;9.106;2024-03-02T09:59:36;13.53;;;9.53;;
19585;SDS011;9939;49.246;9.106;2024-03-02T10:02:02;12.30;;;9.43;;
19585;SDS011;9939;49.246;9.106;2024-03-02T10:04:30;14.00;;;9.07;;
19585;SDS011;9939;49.246;9.106;2024-03-02T10:09:37;15.73;;;9.17;;
19585;SDS011;9939;49.246;9.106;2024-03-02T10:12:04;13.70;;;8.70;;
19585;SDS011;9939;49.246;9.106;2024-03-02T10:14:32;15.80;;;9.13;;
19585;SDS011;9939;49.246;9.106;2024-03-02T10:17:06;12.00;;;8.10;;
19585;SDS011;9939;49.246;9.106;2024-03-02T10:19:34;13.47;;;8.43;;
19585;SDS011;9939;49.246;9.106;2024-03-02T10:22:09;13.67;;;8.63;;
19585;SDS011;9939;49.246;9.106;2024-03-02T10:24:37;13.40;;;8.57;;
19585;SDS011;9939;49.246;9.106;2024-03-02T10:27:16;11.50;;;8.00;;
19585;SDS011;9939;49.246;9.106;2024-03-02T10:29:47;14.43;;;8.93;;
19585;SDS011;9939;49.246;9.106;2024-03-02T10:32:14;12.27;;;8.10;;
19585;SDS011;9939;49.246;9.106;2024-03-02T10:34:43;12.83;;;8.93;;
19585;SDS011;9939;49.246;9.106;2024-03-02T10:37:11;16.57;;;8.40;;
19585;SDS011;9939;49.246;9.106;2024-03-02T10:39:39;11.70;;;7.73;;
19585;SDS011;9939;49.246;9.106;2024-03-02T10:42:07;10.60;;;7.20;;
19585;SDS011;9939;49.246;9.106;2024-03-02T10:44:35;11.80;;;8.00;;
19585;SDS011;9939;49.246;9.106;2024-03-02T10:47:03;11.13;;;8.00;;
19585;SDS011;9939;49.246;9.106;2024-03-02T10:49:31;12.03;;;7.97;;
19585;SDS011;9939;49.246;9.106;2024-03-02T10:51:59;12.43;;;7.33;;
19585;SDS011;9939;49.246;9.106;2024-03-02T10:54:26;13.17;;;8.27;;
19585;SDS011;9939;49.246;9.106;2024-03-02T10:56:58;10.60;;;7.47;;
19585;SDS011;9939;49.246;9.106;2024-03-02T10:59:33;9.93;;;7.00;;
19585;SDS011;9939;49.246;9.106;2024-03-02T11:02:02;12.90;;;7.13;;
19585;SDS011;9939;49.246;9.106;2024-03-02T11:04:32;11.87;;;7.73;;
19585;SDS011;9939;49.246;9.106;2024-03-02T11:09:33;12.87;;;7.80;;
19585;SDS011;9939;49.246;9.106;2024-03-02T11:14:55;9.03;;;6.53;;
19585;SDS011;9939;49.246;9.106;2024-03-02T11:17:22;9.97;;;6.00;;
19585;SDS011;9939;49.246;9.106;2024-03-02T11:19:50;10.13;;;6.60;;
19585;SDS011;9939;49.246;9.106;2024-03-02T11:22:18;10.23;;;6.77;;
19585;SDS011;9939;49.246;9.106;2024-03-02T11:24:49;14.90;;;7.40;;
19585;SDS011;9939;49.246;9.106;2024-03-02T11:33:08;10.57;;;6.03;;
19585;SDS011;9939;49.246;9.106;2024-03-02T11:35:38;6.90;;;4.93;;
19585;SDS011;9939;49.246;9.106;2024-03-02T11:43:08;11.50;;;6.00;;
19585;SDS011;9939;49.246;9.106;2024-03-02T11:45:37;9.93;;;6.57;;
19585;SDS011;9939;49.246;9.106;2024-03-02T11:48:08;9.60;;;5.75;;
19585;SDS011;9939;49.246;9.106;2024-03-02T11:50:46;8.33;;;5.60;;
19585;SDS011;9939;49.246;9.106;2024-03-02T11:53:15;9.25;;;5.60;;
19585;SDS011;9939;49.246;9.106;2024-03-02T11:55:43;9.17;;;5.73;;
19585;SDS011;9939;49.246;9.106;2024-03-02T11:58:14;7.93;;;5.60;;
19585;SDS011;9939;49.246;9.106;2024-03-02T12:00:44;8.80;;;5.60;;
19585;SDS011;9939;49.246;9.106;2024-03-02T12:03:14;7.83;;;5.23;;
19585;SDS011;9939;49.246;9.106;2024-03-02T12:05:42;9.53;;;5.07;;
19585;SDS011;9939;49.246;9.106;2024-03-02T12:08:09;8.47;;;5.37;;
19585;SDS011;9939;49.246;9.106;2024-03-02T12:10:39;8.37;;;5.27;;
19585;SDS011;9939;49.246;9.106;2024-03-02T12:13:06;7.97;;;5.23;;
19585;SDS011;9939;49.246;9.106;2024-03-02T12:15:34;7.90;;;5.20;;
19585;SDS011;9939;49.246;9.106;2024-03-02T12:18:05;7.50;;;4.50;;
19585;SDS011;9939;49.246;9.106;2024-03-02T12:20:33;6.93;;;4.67;;
19585;SDS011;9939;49.246;9.106;2024-03-02T12:23:01;7.27;;;4.20;;
19585;SDS011;9939;49.246;9.106;2024-03-02T12:25:31;5.80;;;3.43;;
19585;SDS011;9939;49.246;9.106;2024-03-02T12:28:01;6.67;;;3.57;;
19585;SDS011;9939;49.246;9.106;2024-03-02T12:30:30;5.80;;;3.70;;
19585;SDS011;9939;49.246;9.106;2024-03-02T12:33:01;5.87;;;3.33;;
19585;SDS011;9939;49.246;9.106;2024-03-02T12:35:29;6.93;;;3.50;;
19585;SDS011;9939;49.246;9.106;2024-03-02T12:37:56;7.63;;;3.03;;
19585;SDS011;9939;49.246;9.106;2024-03-02T12:40:23;5.77;;;3.17;;
19585;SDS011;9939;49.246;9.106;2024-03-02T12:42:50;5.87;;;3.30;;
19585;SDS011;9939;49.246;9.106;2024-03-02T12:45:18;6.33;;;3.50;;
19585;SDS011;9939;49.246;9.106;2024-03-02T12:47:51;6.03;;;3.27;;
19585;SDS011;9939;49.246;9.106;2024-03-02T12:50:18;5.83;;;3.57;;
19585;SDS011;9939;49.246;9.106;2024-03-02T12:52:54;5.60;;;3.53;;
19585;SDS011;9939;49.246;9.106;2024-03-02T12:55:23;6.00;;;3.93;;
19585;SDS011;9939;49.246;9.106;2024-03-02T12:57:51;6.67;;;3.27;;
19585;SDS011;9939;49.246;9.106;2024-03-02T13:00:19;7.07;;;3.70;;
19585;SDS011;9939;49.246;9.106;2024-03-02T13:02:47;8.00;;;4.13;;
19585;SDS011;9939;49.246;9.106;2024-03-02T13:05:18;6.73;;;3.50;;
19585;SDS011;9939;49.246;9.106;2024-03-02T13:07:47;6.47;;;3.40;;
19585;SDS011;9939;49.246;9.106;2024-03-02T13:10:14;4.27;;;2.87;;
19585;SDS011;9939;49.246;9.106;2024-03-02T13:12:41;5.17;;;3.10;;
19585;SDS011;9939;49.246;9.106;2024-03-02T13:15:08;6.47;;;3.10;;
19585;SDS011;9939;49.246;9.106;2024-03-02T13:17:41;5.73;;;3.27;;
19585;SDS011;9939;49.246;9.106;2024-03-02T13:20:08;5.70;;;2.93;;
19585;SDS011;9939;49.246;9.106;2024-03-02T13:22:37;4.60;;;2.87;;
19585;SDS011;9939;49.246;9.106;2024-03-02T13:25:04;5.67;;;3.00;;
19585;SDS011;9939;49.246;9.106;2024-03-02T13:27:32;4.07;;;2.67;;
19585;SDS011;9939;49.246;9.106;2024-03-02T13:29:59;4.37;;;2.40;;
19585;SDS011;9939;49.246;9.106;2024-03-02T13:32:26;3.78;;;2.55;;
19585;SDS011;9939;49.246;9.106;2024-03-02T13:34:53;5.10;;;2.70;;
19585;SDS011;9939;49.246;9.106;2024-03-02T13:37:20;4.07;;;2.42;;
19585;SDS011;9939;49.246;9.106;2024-03-02T13:39:48;4.10;;;2.45;;
19585;SDS011;9939;49.246;9.106;2024-03-02T13:42:15;4.35;;;2.75;;
19585;SDS011;9939;49.246;9.106;2024-03-02T13:44:45;3.45;;;2.33;;
19585;SDS011;9939;49.246;9.106;2024-03-02T13:47:14;4.45;;;2.60;;
19585;SDS011;9939;49.246;9.106;2024-03-02T13:49:41;3.90;;;2.38;;
19585;SDS011;9939;49.246;9.106;2024-03-02T13:52:13;3.88;;;2.33;;
19585;SDS011;9939;49.246;9.106;2024-03-02T13:54:41;3.17;;;1.92;;
19585;SDS011;9939;49.246;9.106;2024-03-02T13:57:12;4.10;;;2.10;;
19585;SDS011;9939;49.246;9.106;2024-03-02T13:59:40;2.92;;;1.73;;
19585;SDS011;9939;49.246;9.106;2024-03-02T14:02:08;3.10;;;1.80;;
19585;SDS011;9939;49.246;9.106;2024-03-02T14:04:36;2.70;;;1.90;;
19585;SDS011;9939;49.246;9.106;2024-03-02T14:07:04;3.50;;;1.90;;
19585;SDS011;9939;49.246;9.106;2024-03-02T14:09:34;3.53;;;1.63;;
19585;SDS011;9939;49.246;9.106;2024-03-02T14:12:01;1.58;;;1.10;;
19585;SDS011;9939;49.246;9.106;2024-03-02T14:14:29;2.92;;;1.85;;
19585;SDS011;9939;49.246;9.106;2024-03-02T14:16:56;3.15;;;1.50;;
19585;SDS011;9939;49.246;9.106;2024-03-02T14:19:26;2.88;;;1.80;;
19585;SDS011;9939;49.246;9.106;2024-03-02T14:21:53;2.85;;;1.70;;
19585;SDS011;9939;49.246;9.106;2024-03-02T14:24:20;3.42;;;1.60;;
19585;SDS011;9939;49.246;9.106;2024-03-02T14:26:50;1.55;;;1.20;;
19585;SDS011;9939;49.246;9.106;2024-03-02T14:29:18;3.33;;;1.20;;
19585;SDS011;9939;49.246;9.106;2024-03-02T14:31:46;2.30;;;1.30;;
19585;SDS011;9939;49.246;9.106;2024-03-02T14:34:14;1.50;;;0.85;;
19585;SDS011;9939;49.246;9.106;2024-03-02T14:36:42;2.45;;;0.90;;
19585;SDS011;9939;49.246;9.106;2024-03-02T14:39:11;1.45;;;1.05;;
19585;SDS011;9939;49.246;9.106;2024-03-02T14:41:38;1.27;;;0.88;;
19585;SDS011;9939;49.246;9.106;2024-03-02T14:44:05;1.95;;;0.93;;
19585;SDS011;9939;49.246;9.106;2024-03-02T14:46:32;1.80;;;1.10;;
19585;SDS011;9939;49.246;9.106;2024-03-02T14:49:00;2.10;;;1.10;;
19585;SDS011;9939;49.246;9.106;2024-03-02T14:51:27;1.40;;;0.93;;
19585;SDS011;9939;49.246;9.106;2024-03-02T14:53:56;2.33;;;1.00;;
19585;SDS011;9939;49.246;9.106;2024-03-02T14:56:23;3.63;;;1.10;;
19585;SDS011;9939;49.246;9.106;2024-03-02T14:58:50;2.67;;;0.87;;
19585;SDS011;9939;49.246;9.106;2024-03-02T15:01:17;3.57;;;0.77;;
19585;SDS011;9939;49.246;9.106;2024-03-02T15:03:45;1.63;;;0.90;;
19585;SDS011;9939;49.246;9.106;2024-03-02T15:06:12;1.30;;;0.90;;
19585;SDS011;9939;49.246;9.106;2024-03-02T15:08:38;2.22;;;0.80;;
19585;SDS011;9939;49.246;9.106;2024-03-02T15:11:08;1.95;;;0.75;;
19585;SDS011;9939;49.246;9.106;2024-03-02T15:13:35;1.42;;;0.88;;